sensor_id;sensor_type;location;lat;lon;timestamp;P1;durP1;ratioP1;P2;durP2;ratioP2
29196;SDS011;62796;42.654;23.316;2023-07-22T00:01:18;16.10;;;7.00;;
29196;SDS011;62796;42.654;23.316;2023-07-22T00:03:44;13.57;;;6.75;;
29196;SDS011;62796;42.654;23.316;2023-07-22T00:06:10;23.90;;;7.30;;
29196;SDS011;62796;42.654;23.316;2023-07-22T00:08:36;14.55;;;6.90;;
29196;SDS011;62796;42.654;23.316;2023-07-22T00:11:03;19.08;;;7.38;;
29196;SDS011;62796;42.654;23.316;2023-07-22T00:13:32;15.90;;;6.35;;
29196;SDS011;62796;42.654;23.316;2023-07-22T00:15:58;13.75;;;6.72;;
29196;SDS011;62796;42.654;23.316;2023-07-22T00:18:29;13.85;;;7.40;;
29196;SDS011;62796;42.654;23.316;2023-07-22T00:20:55;14.57;;;6.68;;
29196;SDS011;62796;42.654;23.316;2023-07-22T00:23:22;16.02;;;6.95;;
29196;SDS011;62796;42.654;23.316;2023-07-22T00:25:47;17.80;;;7.10;;
29196;SDS011;62796;42.654;23.316;2023-07-22T00:28:13;11.23;;;6.88;;
29196;SDS011;62796;42.654;23.316;2023-07-22T00:30:38;14.00;;;6.82;;
29196;SDS011;62796;42.654;23.316;2023-07-22T00:33:04;18.10;;;7.43;;
29196;SDS011;62796;42.654;23.316;2023-07-22T00:35:30;17.58;;;7.20;;
29196;SDS011;62796;42.654;23.316;2023-07-22T00:37:56;16.17;;;7.18;;
29196;SDS011;62796;42.654;23.316;2023-07-22T00:40:22;21.58;;;8.00;;
29196;SDS011;62796;42.654;23.316;2023-07-22T00:42:48;13.10;;;6.95;;
29196;SDS011;62796;42.654;23.316;2023-07-22T00:45:13;13.43;;;6.35;;
29196;SDS011;62796;42.654;23.316;2023-07-22T00:47:38;15.88;;;6.60;;
29196;SDS011;62796;42.654;23.316;2023-07-22T00:50:06;18.10;;;7.30;;
29196;SDS011;62796;42.654;23.316;2023-07-22T00:52:35;12.98;;;6.47;;
29196;SDS011;62796;42.654;23.316;2023-07-22T00:55:02;13.77;;;6.78;;
29196;SDS011;62796;42.654;23.316;2023-07-22T00:57:27;17.00;;;7.60;;
29196;SDS011;62796;42.654;23.316;2023-07-22T00:59:53;15.57;;;6.78;;
29196;SDS011;62796;42.654;23.316;2023-07-22T01:02:21;11.95;;;6.88;;
29196;SDS011;62796;42.654;23.316;2023-07-22T01:04:48;14.07;;;6.70;;
29196;SDS011;62796;42.654;23.316;2023-07-22T01:07:14;13.75;;;6.70;;
29196;SDS011;62796;42.654;23.316;2023-07-22T01:09:41;15.70;;;7.32;;
29196;SDS011;62796;42.654;23.316;2023-07-22T01:12:08;13.40;;;7.28;;
29196;SDS011;62796;42.654;23.316;2023-07-22T01:14:34;14.68;;;6.90;;
29196;SDS011;62796;42.654;23.316;2023-07-22T01:17:04;15.07;;;7.15;;
29196;SDS011;62796;42.654;23.316;2023-07-22T01:19:31;12.80;;;5.90;;
29196;SDS011;62796;42.654;23.316;2023-07-22T01:21:57;11.68;;;6.72;;
29196;SDS011;62796;42.654;23.316;2023-07-22T01:24:25;13.25;;;6.18;;
29196;SDS011;62796;42.654;23.316;2023-07-22T01:26:50;19.45;;;7.10;;
29196;SDS011;62796;42.654;23.316;2023-07-22T01:29:16;11.32;;;6.68;;
29196;SDS011;62796;42.654;23.316;2023-07-22T01:31:41;10.85;;;6.38;;
29196;SDS011;62796;42.654;23.316;2023-07-22T01:34:07;17.75;;;6.97;;
29196;SDS011;62796;42.654;23.316;2023-07-22T01:36:32;15.68;;;7.57;;
29196;SDS011;62796;42.654;23.316;2023-07-22T01:38:57;12.43;;;6.20;;
29196;SDS011;62796;42.654;23.316;2023-07-22T01:41:23;9.88;;;6.65;;
29196;SDS011;62796;42.654;23.316;2023-07-22T01:43:48;16.13;;;7.07;;
29196;SDS011;62796;42.654;23.316;2023-07-22T01:46:14;15.65;;;6.65;;
29196;SDS011;62796;42.654;23.316;2023-07-22T01:48:39;15.93;;;7.07;;
29196;SDS011;62796;42.654;23.316;2023-07-22T01:51:05;11.45;;;7.20;;
29196;SDS011;62796;42.654;23.316;2023-07-22T01:53:30;12.65;;;7.50;;
29196;SDS011;62796;42.654;23.316;2023-07-22T01:55:57;19.20;;;7.30;;
29196;SDS011;62796;42.654;23.316;2023-07-22T01:58:22;14.05;;;6.97;;
29196;SDS011;62796;42.654;23.316;2023-07-22T02:00:50;15.45;;;6.75;;
29196;SDS011;62796;42.654;23.316;2023-07-22T02:03:16;15.75;;;7.38;;
29196;SDS011;62796;42.654;23.316;2023-07-22T02:05:41;12.27;;;6.97;;
29196;SDS011;62796;42.654;23.316;2023-07-22T02:08:07;13.93;;;6.88;;
29196;SDS011;62796;42.654;23.316;2023-07-22T02:10:32;15.98;;;7.05;;
29196;SDS011;62796;42.654;23.316;2023-07-22T02:12:57;13.07;;;7.13;;
29196;SDS011;62796;42.654;23.316;2023-07-22T02:15:23;13.68;;;7.00;;
29196;SDS011;62796;42.654;23.316;2023-07-22T02:17:49;12.80;;;6.90;;
29196;SDS011;62796;42.654;23.316;2023-07-22T02:20:15;16.63;;;7.70;;
29196;SDS011;62796;42.654;23.316;2023-07-22T02:22:40;12.52;;;7.03;;
29196;SDS011;62796;42.654;23.316;2023-07-22T02:25:06;16.05;;;7.80;;
29196;SDS011;62796;42.654;23.316;2023-07-22T02:27:32;19.20;;;7.40;;
29196;SDS011;62796;42.654;23.316;2023-07-22T02:29:57;13.38;;;6.93;;
29196;SDS011;62796;42.654;23.316;2023-07-22T02:32:23;14.10;;;7.00;;
29196;SDS011;62796;42.654;23.316;2023-07-22T02:34:48;14.15;;;7.00;;
29196;SDS011;62796;42.654;23.316;2023-07-22T02:37:13;15.55;;;7.40;;
29196;SDS011;62796;42.654;23.316;2023-07-22T02:39:39;12.23;;;7.53;;
29196;SDS011;62796;42.654;23.316;2023-07-22T02:42:04;17.23;;;7.50;;
29196;SDS011;62796;42.654;23.316;2023-07-22T02:44:30;11.75;;;7.22;;
29196;SDS011;62796;42.654;23.316;2023-07-22T02:46:55;12.52;;;7.18;;
29196;SDS011;62796;42.654;23.316;2023-07-22T02:49:21;11.85;;;7.32;;
29196;SDS011;62796;42.654;23.316;2023-07-22T02:51:46;23.48;;;7.88;;
29196;SDS011;62796;42.654;23.316;2023-07-22T02:54:11;12.38;;;8.05;;
29196;SDS011;62796;42.654;23.316;2023-07-22T02:56:37;15.93;;;7.97;;
29196;SDS011;62796;42.654;23.316;2023-07-22T02:59:02;16.65;;;8.05;;
29196;SDS011;62796;42.654;23.316;2023-07-22T03:01:28;16.33;;;7.60;;
29196;SDS011;62796;42.654;23.316;2023-07-22T03:03:54;18.40;;;7.50;;
29196;SDS011;62796;42.654;23.316;2023-07-22T03:06:20;13.98;;;7.00;;
29196;SDS011;62796;42.654;23.316;2023-07-22T03:08:45;18.88;;;8.35;;
29196;SDS011;62796;42.654;23.316;2023-07-22T03:11:10;12.82;;;7.47;;
29196;SDS011;62796;42.654;23.316;2023-07-22T03:13:36;15.85;;;7.70;;
29196;SDS011;62796;42.654;23.316;2023-07-22T03:16:01;17.88;;;8.20;;
29196;SDS011;62796;42.654;23.316;2023-07-22T03:18:30;17.13;;;7.90;;
29196;SDS011;62796;42.654;23.316;2023-07-22T03:20:56;14.50;;;7.97;;
29196;SDS011;62796;42.654;23.316;2023-07-22T03:23:22;12.32;;;7.78;;
29196;SDS011;62796;42.654;23.316;2023-07-22T03:25:47;12.18;;;7.65;;
29196;SDS011;62796;42.654;23.316;2023-07-22T03:28:13;20.48;;;8.40;;
29196;SDS011;62796;42.654;23.316;2023-07-22T03:30:38;16.95;;;8.20;;
29196;SDS011;62796;42.654;23.316;2023-07-22T03:33:04;11.20;;;7.50;;
29196;SDS011;62796;42.654;23.316;2023-07-22T03:35:30;13.65;;;7.38;;
29196;SDS011;62796;42.654;23.316;2023-07-22T03:37:56;12.15;;;7.25;;
29196;SDS011;62796;42.654;23.316;2023-07-22T03:40:22;12.82;;;7.80;;
29196;SDS011;62796;42.654;23.316;2023-07-22T03:42:55;17.15;;;8.20;;
29196;SDS011;62796;42.654;23.316;2023-07-22T03:45:22;18.85;;;7.45;;
29196;SDS011;62796;42.654;23.316;2023-07-22T03:47:52;18.45;;;8.40;;
29196;SDS011;62796;42.654;23.316;2023-07-22T03:50:19;13.57;;;7.68;;
29196;SDS011;62796;42.654;23.316;2023-07-22T03:52:45;14.15;;;8.00;;
29196;SDS011;62796;42.654;23.316;2023-07-22T03:55:10;13.45;;;8.05;;
29196;SDS011;62796;42.654;23.316;2023-07-22T03:57:35;15.07;;;8.05;;
29196;SDS011;62796;42.654;23.316;2023-07-22T04:00:01;23.48;;;8.82;;
29196;SDS011;62796;42.654;23.316;2023-07-22T04:02:28;16.40;;;8.25;;
29196;SDS011;62796;42.654;23.316;2023-07-22T04:04:54;15.88;;;8.25;;
29196;SDS011;62796;42.654;23.316;2023-07-22T04:07:20;18.00;;;8.57;;
29196;SDS011;62796;42.654;23.316;2023-07-22T04:09:47;13.77;;;7.68;;
29196;SDS011;62796;42.654;23.316;2023-07-22T04:12:13;22.52;;;8.73;;
29196;SDS011;62796;42.654;23.316;2023-07-22T04:14:38;18.52;;;8.82;;
29196;SDS011;62796;42.654;23.316;2023-07-22T04:17:04;12.43;;;8.23;;
29196;SDS011;62796;42.654;23.316;2023-07-22T04:19:30;15.30;;;8.02;;
29196;SDS011;62796;42.654;23.316;2023-07-22T04:21:56;13.07;;;7.28;;
29196;SDS011;62796;42.654;23.316;2023-07-22T04:24:21;16.60;;;8.05;;
29196;SDS011;62796;42.654;23.316;2023-07-22T04:26:48;16.77;;;8.40;;
29196;SDS011;62796;42.654;23.316;2023-07-22T04:29:13;16.25;;;8.50;;
29196;SDS011;62796;42.654;23.316;2023-07-22T04:31:38;13.18;;;7.75;;
29196;SDS011;62796;42.654;23.316;2023-07-22T04:34:04;12.63;;;7.97;;
29196;SDS011;62796;42.654;23.316;2023-07-22T04:36:33;18.30;;;8.70;;
29196;SDS011;62796;42.654;23.316;2023-07-22T04:38:58;13.23;;;8.57;;
29196;SDS011;62796;42.654;23.316;2023-07-22T04:41:24;17.95;;;8.40;;
29196;SDS011;62796;42.654;23.316;2023-07-22T04:43:50;16.45;;;8.32;;
29196;SDS011;62796;42.654;23.316;2023-07-22T04:46:16;13.15;;;7.88;;
29196;SDS011;62796;42.654;23.316;2023-07-22T04:48:42;17.40;;;8.02;;
29196;SDS011;62796;42.654;23.316;2023-07-22T04:51:07;21.00;;;8.43;;
29196;SDS011;62796;42.654;23.316;2023-07-22T04:53:32;28.77;;;9.82;;
29196;SDS011;62796;42.654;23.316;2023-07-22T04:55:58;14.73;;;7.60;;
29196;SDS011;62796;42.654;23.316;2023-07-22T04:58:23;13.88;;;7.90;;
29196;SDS011;62796;42.654;23.316;2023-07-22T05:00:49;18.75;;;8.15;;
29196;SDS011;62796;42.654;23.316;2023-07-22T05:03:14;14.70;;;8.02;;
29196;SDS011;62796;42.654;23.316;2023-07-22T05:05:41;15.88;;;8.15;;
29196;SDS011;62796;42.654;23.316;2023-07-22T05:08:06;17.55;;;8.18;;
29196;SDS011;62796;42.654;23.316;2023-07-22T05:10:33;16.38;;;8.65;;
29196;SDS011;62796;42.654;23.316;2023-07-22T05:12:58;19.00;;;8.43;;
29196;SDS011;62796;42.654;23.316;2023-07-22T05:15:24;17.00;;;8.63;;
29196;SDS011;62796;42.654;23.316;2023-07-22T05:17:50;15.27;;;8.70;;
29196;SDS011;62796;42.654;23.316;2023-07-22T05:20:16;13.35;;;7.47;;
29196;SDS011;62796;42.654;23.316;2023-07-22T05:22:42;14.93;;;7.35;;
29196;SDS011;62796;42.654;23.316;2023-07-22T05:25:07;18.00;;;8.20;;
29196;SDS011;62796;42.654;23.316;2023-07-22T05:27:34;11.80;;;8.02;;
29196;SDS011;62796;42.654;23.316;2023-07-22T05:30:00;14.30;;;8.30;;
29196;SDS011;62796;42.654;23.316;2023-07-22T05:32:27;14.18;;;7.47;;
29196;SDS011;62796;42.654;23.316;2023-07-22T05:34:54;13.52;;;7.97;;
29196;SDS011;62796;42.654;23.316;2023-07-22T05:37:19;14.60;;;8.52;;
29196;SDS011;62796;42.654;23.316;2023-07-22T05:39:44;15.18;;;8.30;;
29196;SDS011;62796;42.654;23.316;2023-07-22T05:42:10;15.25;;;7.88;;
29196;SDS011;62796;42.654;23.316;2023-07-22T05:44:35;16.10;;;8.23;;
29196;SDS011;62796;42.654;23.316;2023-07-22T05:47:00;12.40;;;8.55;;
29196;SDS011;62796;42.654;23.316;2023-07-22T05:49:26;13.98;;;8.57;;
29196;SDS011;62796;42.654;23.316;2023-07-22T05:51:51;15.52;;;8.50;;
29196;SDS011;62796;42.654;23.316;2023-07-22T05:54:17;13.73;;;8.20;;
29196;SDS011;62796;42.654;23.316;2023-07-22T05:56:42;16.45;;;7.82;;
29196;SDS011;62796;42.654;23.316;2023-07-22T05:59:08;16.65;;;8.43;;
29196;SDS011;62796;42.654;23.316;2023-07-22T06:01:33;22.73;;;8.50;;
29196;SDS011;62796;42.654;23.316;2023-07-22T06:03:59;19.05;;;8.50;;
29196;SDS011;62796;42.654;23.316;2023-07-22T06:06:25;18.33;;;8.57;;
29196;SDS011;62796;42.654;23.316;2023-07-22T06:08:50;15.98;;;7.90;;
29196;SDS011;62796;42.654;23.316;2023-07-22T06:11:15;15.65;;;8.90;;
29196;SDS011;62796;42.654;23.316;2023-07-22T06:13:41;14.88;;;9.02;;
29196;SDS011;62796;42.654;23.316;2023-07-22T06:16:06;19.23;;;9.55;;
29196;SDS011;62796;42.654;23.316;2023-07-22T06:18:31;15.65;;;8.95;;
29196;SDS011;62796;42.654;23.316;2023-07-22T06:20:57;16.42;;;8.73;;
29196;SDS011;62796;42.654;23.316;2023-07-22T06:23:22;18.40;;;9.02;;
29196;SDS011;62796;42.654;23.316;2023-07-22T06:25:48;14.82;;;8.65;;
29196;SDS011;62796;42.654;23.316;2023-07-22T06:28:13;17.30;;;8.50;;
29196;SDS011;62796;42.654;23.316;2023-07-22T06:30:38;13.38;;;8.10;;
29196;SDS011;62796;42.654;23.316;2023-07-22T06:33:04;13.68;;;9.07;;
29196;SDS011;62796;42.654;23.316;2023-07-22T06:35:29;18.08;;;9.95;;
29196;SDS011;62796;42.654;23.316;2023-07-22T06:37:55;14.43;;;8.50;;
29196;SDS011;62796;42.654;23.316;2023-07-22T06:40:20;18.35;;;8.15;;
29196;SDS011;62796;42.654;23.316;2023-07-22T06:42:45;15.63;;;9.05;;
29196;SDS011;62796;42.654;23.316;2023-07-22T06:45:11;16.58;;;8.30;;
29196;SDS011;62796;42.654;23.316;2023-07-22T06:47:36;15.55;;;8.65;;
29196;SDS011;62796;42.654;23.316;2023-07-22T06:50:02;16.85;;;8.77;;
29196;SDS011;62796;42.654;23.316;2023-07-22T06:52:29;17.30;;;9.70;;
29196;SDS011;62796;42.654;23.316;2023-07-22T06:54:58;19.20;;;9.18;;
29196;SDS011;62796;42.654;23.316;2023-07-22T06:57:23;18.00;;;9.32;;
29196;SDS011;62796;42.654;23.316;2023-07-22T06:59:51;14.30;;;9.35;;
29196;SDS011;62796;42.654;23.316;2023-07-22T07:02:18;13.80;;;10.00;;
29196;SDS011;62796;42.654;23.316;2023-07-22T07:04:44;20.70;;;10.48;;
29196;SDS011;62796;42.654;23.316;2023-07-22T07:07:10;25.17;;;9.88;;
29196;SDS011;62796;42.654;23.316;2023-07-22T07:09:36;19.50;;;10.48;;
29196;SDS011;62796;42.654;23.316;2023-07-22T07:12:02;20.73;;;11.13;;
29196;SDS011;62796;42.654;23.316;2023-07-22T07:14:27;13.57;;;9.60;;
29196;SDS011;62796;42.654;23.316;2023-07-22T07:16:53;14.20;;;10.30;;
29196;SDS011;62796;42.654;23.316;2023-07-22T07:19:18;18.02;;;10.07;;
29196;SDS011;62796;42.654;23.316;2023-07-22T07:21:44;27.27;;;10.50;;
29196;SDS011;62796;42.654;23.316;2023-07-22T07:24:09;20.77;;;10.00;;
29196;SDS011;62796;42.654;23.316;2023-07-22T07:26:34;12.30;;;10.00;;
29196;SDS011;62796;42.654;23.316;2023-07-22T07:29:00;18.40;;;10.13;;
29196;SDS011;62796;42.654;23.316;2023-07-22T07:31:25;15.30;;;9.90;;
29196;SDS011;62796;42.654;23.316;2023-07-22T07:33:51;19.13;;;9.73;;
29196;SDS011;62796;42.654;23.316;2023-07-22T07:36:16;15.02;;;10.50;;
29196;SDS011;62796;42.654;23.316;2023-07-22T07:38:42;22.15;;;10.15;;
29196;SDS011;62796;42.654;23.316;2023-07-22T07:41:07;17.15;;;10.38;;
29196;SDS011;62796;42.654;23.316;2023-07-22T07:43:34;16.77;;;9.95;;
29196;SDS011;62796;42.654;23.316;2023-07-22T07:48:44;16.30;;;9.43;;
29196;SDS011;62796;42.654;23.316;2023-07-22T07:51:11;17.08;;;9.25;;
29196;SDS011;62796;42.654;23.316;2023-07-22T07:53:38;16.50;;;9.38;;
29196;SDS011;62796;42.654;23.316;2023-07-22T07:56:03;17.92;;;9.85;;
29196;SDS011;62796;42.654;23.316;2023-07-22T07:58:29;16.90;;;9.25;;
29196;SDS011;62796;42.654;23.316;2023-07-22T08:00:54;21.30;;;9.68;;
29196;SDS011;62796;42.654;23.316;2023-07-22T08:03:20;14.25;;;9.50;;
29196;SDS011;62796;42.654;23.316;2023-07-22T08:05:45;15.63;;;9.63;;
29196;SDS011;62796;42.654;23.316;2023-07-22T08:08:11;15.65;;;10.27;;
29196;SDS011;62796;42.654;23.316;2023-07-22T08:10:36;18.95;;;9.75;;
29196;SDS011;62796;42.654;23.316;2023-07-22T08:13:02;17.70;;;10.30;;
29196;SDS011;62796;42.654;23.316;2023-07-22T08:15:27;15.80;;;9.80;;
29196;SDS011;62796;42.654;23.316;2023-07-22T08:17:53;16.92;;;10.52;;
29196;SDS011;62796;42.654;23.316;2023-07-22T08:20:18;14.10;;;9.45;;
29196;SDS011;62796;42.654;23.316;2023-07-22T08:22:44;15.57;;;9.38;;
29196;SDS011;62796;42.654;23.316;2023-07-22T08:25:09;23.20;;;10.18;;
29196;SDS011;62796;42.654;23.316;2023-07-22T08:27:34;15.85;;;9.95;;
29196;SDS011;62796;42.654;23.316;2023-07-22T08:30:00;17.83;;;9.52;;
29196;SDS011;62796;42.654;23.316;2023-07-22T08:32:25;18.30;;;9.68;;
29196;SDS011;62796;42.654;23.316;2023-07-22T08:34:51;26.58;;;10.77;;
29196;SDS011;62796;42.654;23.316;2023-07-22T08:37:16;27.52;;;9.82;;
29196;SDS011;62796;42.654;23.316;2023-07-22T08:39:41;22.40;;;9.90;;
29196;SDS011;62796;42.654;23.316;2023-07-22T08:42:07;18.95;;;10.07;;
29196;SDS011;62796;42.654;23.316;2023-07-22T08:44:33;19.08;;;9.52;;
29196;SDS011;62796;42.654;23.316;2023-07-22T08:47:02;18.60;;;9.75;;
29196;SDS011;62796;42.654;23.316;2023-07-22T08:49:29;17.20;;;9.18;;
29196;SDS011;62796;42.654;23.316;2023-07-22T08:51:55;19.65;;;9.45;;
29196;SDS011;62796;42.654;23.316;2023-07-22T08:54:22;25.02;;;11.18;;
29196;SDS011;62796;42.654;23.316;2023-07-22T08:56:48;14.50;;;9.80;;
29196;SDS011;62796;42.654;23.316;2023-07-22T08:59:15;23.10;;;10.10;;
29196;SDS011;62796;42.654;23.316;2023-07-22T09:01:45;18.25;;;10.20;;
29196;SDS011;62796;42.654;23.316;2023-07-22T09:04:12;16.70;;;9.45;;
29196;SDS011;62796;42.654;23.316;2023-07-22T09:06:38;17.70;;;9.43;;
29196;SDS011;62796;42.654;23.316;2023-07-22T09:09:04;25.77;;;10.85;;
29196;SDS011;62796;42.654;23.316;2023-07-22T09:11:33;16.85;;;10.15;;
29196;SDS011;62796;42.654;23.316;2023-07-22T09:13:59;17.33;;;9.85;;
29196;SDS011;62796;42.654;23.316;2023-07-22T09:16:27;17.50;;;10.02;;
29196;SDS011;62796;42.654;23.316;2023-07-22T09:18:59;19.23;;;10.20;;
29196;SDS011;62796;42.654;23.316;2023-07-22T09:21:25;18.17;;;9.73;;
29196;SDS011;62796;42.654;23.316;2023-07-22T09:23:50;18.27;;;9.18;;
29196;SDS011;62796;42.654;23.316;2023-07-22T09:26:17;16.67;;;10.27;;
29196;SDS011;62796;42.654;23.316;2023-07-22T09:28:52;18.95;;;8.95;;
29196;SDS011;62796;42.654;23.316;2023-07-22T09:31:23;20.17;;;10.15;;
29196;SDS011;62796;42.654;23.316;2023-07-22T09:33:53;16.33;;;9.40;;
29196;SDS011;62796;42.654;23.316;2023-07-22T09:36:21;18.48;;;9.85;;
29196;SDS011;62796;42.654;23.316;2023-07-22T09:39:02;23.48;;;9.43;;
29196;SDS011;62796;42.654;23.316;2023-07-22T09:41:28;17.70;;;9.48;;
29196;SDS011;62796;42.654;23.316;2023-07-22T09:43:57;21.35;;;10.07;;
29196;SDS011;62796;42.654;23.316;2023-07-22T09:46:22;18.80;;;9.80;;
29196;SDS011;62796;42.654;23.316;2023-07-22T09:48:56;19.85;;;10.20;;
29196;SDS011;62796;42.654;23.316;2023-07-22T09:51:22;19.70;;;9.60;;
29196;SDS011;62796;42.654;23.316;2023-07-22T09:53:51;22.58;;;9.95;;
29196;SDS011;62796;42.654;23.316;2023-07-22T09:56:25;18.63;;;9.05;;
29196;SDS011;62796;42.654;23.316;2023-07-22T09:58:50;20.30;;;9.90;;
29196;SDS011;62796;42.654;23.316;2023-07-22T10:01:16;24.15;;;9.35;;
29196;SDS011;62796;42.654;23.316;2023-07-22T10:03:45;16.83;;;9.10;;
29196;SDS011;62796;42.654;23.316;2023-07-22T10:06:13;15.45;;;9.30;;
29196;SDS011;62796;42.654;23.316;2023-07-22T10:08:40;22.30;;;9.90;;
29196;SDS011;62796;42.654;23.316;2023-07-22T10:11:09;18.45;;;9.48;;
29196;SDS011;62796;42.654;23.316;2023-07-22T10:13:36;22.90;;;9.15;;
29196;SDS011;62796;42.654;23.316;2023-07-22T10:16:03;21.48;;;9.50;;
29196;SDS011;62796;42.654;23.316;2023-07-22T10:18:29;24.42;;;9.10;;
29196;SDS011;62796;42.654;23.316;2023-07-22T10:20:56;20.60;;;9.23;;
29196;SDS011;62796;42.654;23.316;2023-07-22T10:23:23;18.10;;;8.88;;
29196;SDS011;62796;42.654;23.316;2023-07-22T10:25:50;26.27;;;9.32;;
29196;SDS011;62796;42.654;23.316;2023-07-22T10:28:18;17.55;;;8.82;;
29196;SDS011;62796;42.654;23.316;2023-07-22T10:30:45;21.35;;;9.38;;
29196;SDS011;62796;42.654;23.316;2023-07-22T10:33:11;19.60;;;8.40;;
29196;SDS011;62796;42.654;23.316;2023-07-22T10:35:40;24.23;;;9.18;;
29196;SDS011;62796;42.654;23.316;2023-07-22T10:40:47;23.75;;;6.90;;
29196;SDS011;62796;42.654;23.316;2023-07-22T10:43:15;30.17;;;7.63;;
29196;SDS011;62796;42.654;23.316;2023-07-22T10:45:51;33.90;;;7.43;;
29196;SDS011;62796;42.654;23.316;2023-07-22T10:48:18;29.45;;;6.95;;
29196;SDS011;62796;42.654;23.316;2023-07-22T10:50:46;28.20;;;6.97;;
29196;SDS011;62796;42.654;23.316;2023-07-22T10:56:33;32.22;;;7.43;;
29196;SDS011;62796;42.654;23.316;2023-07-22T11:09:54;31.50;;;7.43;;
29196;SDS011;62796;42.654;23.316;2023-07-22T11:12:01;39.85;;;7.95;;
29196;SDS011;62796;42.654;23.316;2023-07-22T11:14:39;29.58;;;7.28;;
29196;SDS011;62796;42.654;23.316;2023-07-22T11:17:09;31.83;;;7.85;;
29196;SDS011;62796;42.654;23.316;2023-07-22T11:19:36;36.15;;;7.50;;
29196;SDS011;62796;42.654;23.316;2023-07-22T11:22:02;29.00;;;6.95;;
29196;SDS011;62796;42.654;23.316;2023-07-22T11:24:28;27.33;;;7.10;;
29196;SDS011;62796;42.654;23.316;2023-07-22T11:26:53;28.17;;;7.82;;
29196;SDS011;62796;42.654;23.316;2023-07-22T11:29:19;30.63;;;8.00;;
29196;SDS011;62796;42.654;23.316;2023-07-22T11:31:45;22.98;;;6.72;;
29196;SDS011;62796;42.654;23.316;2023-07-22T11:34:13;20.85;;;6.47;;
29196;SDS011;62796;42.654;23.316;2023-07-22T11:36:43;28.45;;;7.07;;
29196;SDS011;62796;42.654;23.316;2023-07-22T11:39:12;28.75;;;7.80;;
29196;SDS011;62796;42.654;23.316;2023-07-22T11:41:39;27.67;;;7.07;;
29196;SDS011;62796;42.654;23.316;2023-07-22T11:44:09;24.10;;;7.32;;
29196;SDS011;62796;42.654;23.316;2023-07-22T11:46:57;29.70;;;7.28;;
29196;SDS011;62796;42.654;23.316;2023-07-22T11:49:26;25.92;;;7.03;;
29196;SDS011;62796;42.654;23.316;2023-07-22T11:51:56;30.73;;;7.82;;
29196;SDS011;62796;42.654;23.316;2023-07-22T11:54:26;25.80;;;6.95;;
29196;SDS011;62796;42.654;23.316;2023-07-22T11:56:52;19.17;;;6.30;;
29196;SDS011;62796;42.654;23.316;2023-07-22T11:59:31;27.13;;;7.65;;
29196;SDS011;62796;42.654;23.316;2023-07-22T12:01:59;30.05;;;7.13;;
29196;SDS011;62796;42.654;23.316;2023-07-22T12:04:25;30.90;;;7.10;;
29196;SDS011;62796;42.654;23.316;2023-07-22T12:06:51;34.13;;;8.15;;
29196;SDS011;62796;42.654;23.316;2023-07-22T12:09:16;23.77;;;7.63;;
29196;SDS011;62796;42.654;23.316;2023-07-22T12:11:41;26.00;;;6.95;;
29196;SDS011;62796;42.654;23.316;2023-07-22T12:14:13;24.90;;;6.63;;
29196;SDS011;62796;42.654;23.316;2023-07-22T12:16:42;26.23;;;6.75;;
29196;SDS011;62796;42.654;23.316;2023-07-22T12:19:08;21.65;;;6.93;;
29196;SDS011;62796;42.654;23.316;2023-07-22T12:21:34;21.27;;;6.95;;
29196;SDS011;62796;42.654;23.316;2023-07-22T12:24:00;25.27;;;7.43;;
29196;SDS011;62796;42.654;23.316;2023-07-22T12:26:27;30.80;;;7.03;;
29196;SDS011;62796;42.654;23.316;2023-07-22T12:28:52;27.83;;;7.10;;
29196;SDS011;62796;42.654;23.316;2023-07-22T12:31:18;26.73;;;7.20;;
29196;SDS011;62796;42.654;23.316;2023-07-22T12:33:44;26.67;;;6.75;;
29196;SDS011;62796;42.654;23.316;2023-07-22T12:36:10;30.42;;;6.97;;
29196;SDS011;62796;42.654;23.316;2023-07-22T12:38:35;27.95;;;7.05;;
29196;SDS011;62796;42.654;23.316;2023-07-22T12:41:01;28.38;;;7.68;;
29196;SDS011;62796;42.654;23.316;2023-07-22T12:43:27;30.23;;;7.53;;
29196;SDS011;62796;42.654;23.316;2023-07-22T12:45:53;27.95;;;6.45;;
29196;SDS011;62796;42.654;23.316;2023-07-22T12:48:18;23.70;;;6.90;;
29196;SDS011;62796;42.654;23.316;2023-07-22T12:50:44;22.95;;;6.85;;
29196;SDS011;62796;42.654;23.316;2023-07-22T12:53:09;27.80;;;7.38;;
29196;SDS011;62796;42.654;23.316;2023-07-22T12:55:35;30.92;;;7.22;;
29196;SDS011;62796;42.654;23.316;2023-07-22T12:58:00;23.02;;;7.63;;
29196;SDS011;62796;42.654;23.316;2023-07-22T13:00:26;26.10;;;7.68;;
29196;SDS011;62796;42.654;23.316;2023-07-22T13:02:52;23.02;;;7.22;;
29196;SDS011;62796;42.654;23.316;2023-07-22T13:05:18;24.27;;;6.20;;
29196;SDS011;62796;42.654;23.316;2023-07-22T13:07:43;27.50;;;6.72;;
29196;SDS011;62796;42.654;23.316;2023-07-22T13:10:09;30.70;;;7.50;;
29196;SDS011;62796;42.654;23.316;2023-07-22T13:12:37;24.25;;;6.90;;
29196;SDS011;62796;42.654;23.316;2023-07-22T13:15:03;28.63;;;6.95;;
29196;SDS011;62796;42.654;23.316;2023-07-22T13:17:29;21.30;;;7.43;;
29196;SDS011;62796;42.654;23.316;2023-07-22T13:19:55;24.77;;;8.32;;
29196;SDS011;62796;42.654;23.316;2023-07-22T13:22:20;33.88;;;8.57;;
29196;SDS011;62796;42.654;23.316;2023-07-22T13:24:45;25.90;;;7.75;;
29196;SDS011;62796;42.654;23.316;2023-07-22T13:27:11;29.05;;;7.68;;
29196;SDS011;62796;42.654;23.316;2023-07-22T13:29:36;25.63;;;7.35;;
29196;SDS011;62796;42.654;23.316;2023-07-22T13:32:02;28.48;;;7.03;;
29196;SDS011;62796;42.654;23.316;2023-07-22T13:34:29;35.33;;;8.13;;
29196;SDS011;62796;42.654;23.316;2023-07-22T13:36:54;21.60;;;6.90;;
29196;SDS011;62796;42.654;23.316;2023-07-22T13:39:20;30.17;;;7.15;;
29196;SDS011;62796;42.654;23.316;2023-07-22T13:41:45;23.98;;;6.72;;
29196;SDS011;62796;42.654;23.316;2023-07-22T13:44:10;33.05;;;7.70;;
29196;SDS011;62796;42.654;23.316;2023-07-22T13:46:36;29.08;;;7.25;;
29196;SDS011;62796;42.654;23.316;2023-07-22T13:49:01;30.90;;;7.07;;
29196;SDS011;62796;42.654;23.316;2023-07-22T13:51:27;27.52;;;8.35;;
29196;SDS011;62796;42.654;23.316;2023-07-22T13:53:52;23.23;;;7.15;;
29196;SDS011;62796;42.654;23.316;2023-07-22T13:56:19;31.67;;;7.50;;
29196;SDS011;62796;42.654;23.316;2023-07-22T13:58:45;28.13;;;6.55;;
29196;SDS011;62796;42.654;23.316;2023-07-22T14:01:10;25.80;;;6.55;;
29196;SDS011;62796;42.654;23.316;2023-07-22T14:03:35;24.00;;;7.07;;
29196;SDS011;62796;42.654;23.316;2023-07-22T14:06:01;28.73;;;7.22;;
29196;SDS011;62796;42.654;23.316;2023-07-22T14:08:26;22.25;;;6.13;;
29196;SDS011;62796;42.654;23.316;2023-07-22T14:10:52;20.13;;;6.95;;
29196;SDS011;62796;42.654;23.316;2023-07-22T14:13:18;27.55;;;6.93;;
29196;SDS011;62796;42.654;23.316;2023-07-22T14:15:43;27.23;;;6.97;;
29196;SDS011;62796;42.654;23.316;2023-07-22T14:18:08;28.83;;;6.28;;
29196;SDS011;62796;42.654;23.316;2023-07-22T14:20:34;25.98;;;7.13;;
29196;SDS011;62796;42.654;23.316;2023-07-22T14:22:59;25.88;;;7.45;;
29196;SDS011;62796;42.654;23.316;2023-07-22T14:25:25;32.50;;;7.65;;
29196;SDS011;62796;42.654;23.316;2023-07-22T14:27:50;26.17;;;6.78;;
29196;SDS011;62796;42.654;23.316;2023-07-22T14:30:15;30.98;;;6.88;;
29196;SDS011;62796;42.654;23.316;2023-07-22T14:32:41;33.90;;;7.25;;
29196;SDS011;62796;42.654;23.316;2023-07-22T14:35:06;26.98;;;7.45;;